createdAt,value
2022-08-26T00:00:51.789Z,99839.56
2022-08-26T00:03:20.844Z,99859.63
2022-08-26T00:05:52.074Z,99856.38
2022-08-26T00:08:21.685Z,99862.03
2022-08-26T00:10:50.344Z,99863.59
2022-08-26T00:13:19.520Z,99872.94
2022-08-26T00:15:48.270Z,99865.88
2022-08-26T00:18:22.270Z,99862.09
2022-08-26T00:20:52.826Z,99839.50
2022-08-26T00:23:24.067Z,99817.81
2022-08-26T00:25:53.094Z,99836.97
2022-08-26T00:28:22.935Z,99833.88
2022-08-26T00:30:52.522Z,99838.22
2022-08-26T00:33:23.114Z,99829.00
2022-08-26T00:35:53.062Z,99835.69
2022-08-26T00:38:22.881Z,99826.94
2022-08-26T00:40:53.956Z,99826.00
2022-08-26T00:43:24.226Z,99813.91
2022-08-26T00:45:58.549Z,99819.06
2022-08-26T00:48:31.902Z,99834.28
2022-08-26T00:51:07.661Z,99825.16
2022-08-26T00:53:41.496Z,99830.63
2022-08-26T00:56:17.023Z,99823.03
2022-08-26T00:58:48.102Z,99824.22
2022-08-26T01:01:17.410Z,99810.63
2022-08-26T01:03:47.575Z,99807.03
2022-08-26T01:06:18.036Z,99813.81
2022-08-26T01:08:46.510Z,99819.81
2022-08-26T01:11:15.306Z,99808.13
2022-08-26T01:13:45.333Z,99814.28
2022-08-26T01:16:16.906Z,99806.28
2022-08-26T01:18:46.976Z,99796.84
2022-08-26T01:21:23.099Z,99811.34
2022-08-26T01:23:57.280Z,99811.34
2022-08-26T01:26:29.822Z,99797.88
2022-08-26T01:29:01.606Z,99805.56
2022-08-26T01:31:34.043Z,99809.34
2022-08-26T01:34:07.782Z,99816.41
2022-08-26T01:36:38.735Z,99801.00
2022-08-26T01:39:09.919Z,99809.06
2022-08-26T01:41:40.681Z,99809.44
2022-08-26T01:44:19.535Z,99810.28
2022-08-26T01:46:52.367Z,99810.53
2022-08-26T01:49:24.305Z,99816.50
2022-08-26T01:51:56.686Z,99809.44
2022-08-26T01:54:28.131Z,99808.88
2022-08-26T01:56:56.740Z,99802.81
2022-08-26T01:59:26.682Z,99797.25
2022-08-26T02:01:55.378Z,99803.47
2022-08-26T02:04:28.880Z,99803.94
2022-08-26T02:06:59.135Z,99788.72
2022-08-26T02:09:29.100Z,99793.50
2022-08-26T02:12:01.766Z,99791.56
2022-08-26T02:14:34.571Z,99802.28
2022-08-26T02:17:04.761Z,99793.03
2022-08-26T02:19:40.918Z,99782.66
2022-08-26T02:22:16.325Z,99796.47
2022-08-26T02:24:51.121Z,99797.00
2022-08-26T02:27:25.065Z,99795.34
2022-08-26T02:30:00.137Z,99785.75
2022-08-26T02:32:29.940Z,99783.25
2022-08-26T02:34:58.438Z,99788.41
2022-08-26T02:37:30.083Z,99784.81
2022-08-26T02:40:00.204Z,99779.50
2022-08-26T02:42:28.782Z,99784.91
2022-08-26T02:44:57.907Z,99772.16
2022-08-26T02:47:28.960Z,99782.53
2022-08-26T02:49:57.765Z,99779.88
2022-08-26T02:52:26.290Z,99780.53
2022-08-26T02:54:56.828Z,99782.53
2022-08-26T02:57:26.759Z,99779.59
2022-08-26T02:59:55.241Z,99784.25
2022-08-26T03:02:23.799Z,99782.06
2022-08-26T03:04:57.888Z,99769.03
2022-08-26T03:07:32.181Z,99789.00
2022-08-26T03:10:01.362Z,99775.22
2022-08-26T03:12:38.305Z,99779.44
2022-08-26T03:15:17.344Z,99792.59
2022-08-26T03:17:47.917Z,99786.63
2022-08-26T03:20:17.635Z,99789.94
2022-08-26T03:22:46.821Z,99786.03
2022-08-26T03:25:18.364Z,99796.22
2022-08-26T03:27:48.471Z,99778.59
2022-08-26T03:30:35.274Z,99779.56
2022-08-26T03:33:04.294Z,99790.44
2022-08-26T03:35:33.318Z,99797.19
2022-08-26T03:38:03.567Z,99781.72
2022-08-26T03:40:33.900Z,99773.16
2022-08-26T03:43:06.393Z,99783.53
2022-08-26T03:45:38.202Z,99778.13
2022-08-26T03:48:07.107Z,99775.94
2022-08-26T03:50:36.624Z,99779.22
2022-08-26T03:53:07.469Z,99784.88
2022-08-26T03:55:43.179Z,99786.53
2022-08-26T03:58:13.261Z,99793.16
2022-08-26T04:04:00.825Z,99790.56
2022-08-26T04:06:32.755Z,99789.56
2022-08-26T04:09:03.407Z,99797.03
2022-08-26T04:11:35.247Z,99793.41
2022-08-26T04:14:10.454Z,99788.59
2022-08-26T04:16:39.204Z,99780.06
2022-08-26T04:19:08.094Z,99783.78
2022-08-26T04:21:38.418Z,99789.28
2022-08-26T04:24:11.369Z,99772.78
2022-08-26T04:26:42.820Z,99790.63
2022-08-26T04:29:17.782Z,99788.81
2022-08-26T04:31:47.076Z,99789.94
2022-08-26T04:34:17.710Z,99794.97
2022-08-26T04:36:46.253Z,99781.06
2022-08-26T04:39:18.739Z,99790.00
2022-08-26T04:41:50.292Z,99791.91
2022-08-26T04:44:20.721Z,99785.03
2022-08-26T04:46:50.124Z,99790.13
2022-08-26T04:49:19.713Z,99790.47
2022-08-26T04:51:49.103Z,99785.16
2022-08-26T04:54:17.818Z,99784.69
2022-08-26T04:56:49.689Z,99784.88
2022-08-26T04:59:20.228Z,99778.81
2022-08-26T05:01:56.443Z,99777.34
2022-08-26T05:04:25.002Z,99781.34
2022-08-26T05:06:57.824Z,99774.56
2022-08-26T05:09:30.715Z,99783.34
2022-08-26T05:11:59.386Z,99789.50
2022-08-26T05:14:29.388Z,99785.47
2022-08-26T05:16:58.100Z,99793.56
2022-08-26T05:19:27.827Z,99798.19
2022-08-26T05:21:56.641Z,99792.50
2022-08-26T05:24:25.593Z,99782.72
2022-08-26T05:26:54.247Z,99793.41
2022-08-26T05:29:25.420Z,99788.44
2022-08-26T05:31:55.989Z,99792.47
2022-08-26T05:34:25.753Z,99777.56
2022-08-26T05:36:58.727Z,99793.47
2022-08-26T05:39:27.246Z,99797.38
2022-08-26T05:41:55.681Z,99795.56
2022-08-26T05:44:25.037Z,99801.56
2022-08-26T05:46:53.562Z,99807.22
2022-08-26T05:49:26.394Z,99793.66
2022-08-26T05:51:55.247Z,99806.56
2022-08-26T05:54:24.006Z,99807.22
2022-08-26T05:56:52.795Z,99797.28
2022-08-26T05:59:24.625Z,99795.94
2022-08-26T06:01:54.993Z,99801.19
2022-08-26T06:04:27.028Z,99787.94
2022-08-26T06:06:58.621Z,99797.56
2022-08-26T06:09:27.976Z,99796.69
2022-08-26T06:11:58.843Z,99794.47
2022-08-26T06:14:27.574Z,99786.81
2022-08-26T06:16:56.185Z,99793.03
2022-08-26T06:19:26.117Z,99785.91
2022-08-26T06:22:23.533Z,99787.50
2022-08-26T06:25:10.067Z,99795.81
2022-08-26T06:27:38.743Z,99785.69
2022-08-26T06:30:09.861Z,99790.88
2022-08-26T06:32:38.314Z,99795.03
2022-08-26T06:35:11.961Z,99786.66
2022-08-26T06:37:41.243Z,99784.13
2022-08-26T06:40:10.610Z,99784.97
2022-08-26T06:42:40.326Z,99779.00
2022-08-26T06:45:09.678Z,99769.16
2022-08-26T06:47:39.815Z,99767.50
2022-08-26T06:50:10.501Z,99756.53
2022-08-26T06:52:39.112Z,99757.75
2022-08-26T06:55:08.406Z,99757.75
2022-08-26T06:57:39.710Z,99763.28
2022-08-26T07:00:11.412Z,99769.31
2022-08-26T07:02:41.159Z,99759.38
2022-08-26T07:05:16.987Z,99778.84
2022-08-26T07:07:45.452Z,99770.38
2022-08-26T07:10:13.918Z,99763.59
2022-08-26T07:12:42.601Z,99769.63
2022-08-26T07:15:15.938Z,99765.88
2022-08-26T07:17:44.820Z,99757.47
2022-08-26T07:20:13.759Z,99765.91
2022-08-26T07:22:43.903Z,99753.53
2022-08-26T07:25:12.569Z,99759.88
2022-08-26T07:27:41.062Z,99767.16
2022-08-26T07:30:10.500Z,99763.69
2022-08-26T07:32:43.586Z,99750.97
2022-08-26T07:35:12.086Z,99765.16
2022-08-26T07:37:40.755Z,99762.50
2022-08-26T07:40:11.965Z,99753.19
2022-08-26T07:42:40.766Z,99758.13
2022-08-26T07:45:09.646Z,99750.09
2022-08-26T07:47:38.399Z,99770.44
2022-08-26T07:50:07.525Z,99754.47
2022-08-26T07:52:37.755Z,99756.66
2022-08-26T07:55:08.855Z,99753.75
2022-08-26T07:57:39.979Z,99758.50
2022-08-26T08:00:13.002Z,99759.09
2022-08-26T08:02:44.724Z,99757.34
2022-08-26T08:05:14.247Z,99750.22
2022-08-26T08:07:44.790Z,99755.09
2022-08-26T08:10:17.520Z,99754.97
2022-08-26T08:12:49.744Z,99751.34
2022-08-26T08:15:21.349Z,99758.28
2022-08-26T08:17:51.535Z,99757.66
2022-08-26T08:20:21.896Z,99743.84
2022-08-26T08:22:52.230Z,99760.63
2022-08-26T08:25:22.937Z,99757.16
2022-08-26T08:27:52.832Z,99750.56
2022-08-26T08:30:23.319Z,99756.34
2022-08-26T08:32:52.480Z,99759.38
2022-08-26T08:35:22.704Z,99735.78
2022-08-26T08:37:54.515Z,99746.88
2022-08-26T08:40:25.626Z,99743.69
2022-08-26T08:43:00.739Z,99741.31
2022-08-26T08:45:37.066Z,99739.31
2022-08-26T08:48:12.182Z,99743.50
2022-08-26T08:50:45.969Z,99729.47
2022-08-26T08:53:18.750Z,99728.56
2022-08-26T08:56:06.338Z,99720.44
2022-08-26T08:58:52.737Z,99726.69
2022-08-26T09:01:42.814Z,99729.50
2022-08-26T09:04:35.278Z,99728.41
2022-08-26T09:07:05.793Z,99723.34
2022-08-26T09:09:39.249Z,99715.94
2022-08-26T09:12:13.948Z,99722.38
2022-08-26T09:14:44.583Z,99719.44
2022-08-26T09:17:24.158Z,99725.72
2022-08-26T09:19:55.943Z,99712.53
2022-08-26T09:22:33.176Z,99710.81
2022-08-26T09:25:03.358Z,99709.16
2022-08-26T09:27:40.613Z,99706.03
2022-08-26T09:30:13.619Z,99703.53
2022-08-26T09:32:42.962Z,99697.16
2022-08-26T09:35:27.671Z,99695.16
2022-08-26T09:37:57.205Z,99686.28
2022-08-26T09:40:30.706Z,99688.63
2022-08-26T09:43:22.904Z,99688.09
2022-08-26T09:45:59.255Z,99696.91
2022-08-26T09:48:32.289Z,99698.28
2022-08-26T09:51:07.038Z,99692.44
2022-08-26T09:53:50.832Z,99666.47
2022-08-26T09:56:27.584Z,99677.50
2022-08-26T09:58:58.339Z,99683.22
2022-08-26T10:01:33.481Z,99647.28
2022-08-26T10:04:09.930Z,99681.47
2022-08-26T10:06:43.421Z,99676.25
2022-08-26T10:09:15.179Z,99682.72
2022-08-26T10:11:47.146Z,99662.91
2022-08-26T10:14:22.515Z,99674.25
2022-08-26T10:16:58.250Z,99673.44
2022-08-26T10:19:55.522Z,99663.41
2022-08-26T10:22:25.246Z,99680.19
2022-08-26T10:24:58.872Z,99669.06
2022-08-26T10:27:37.709Z,99666.19
2022-08-26T10:30:13.829Z,99674.22
2022-08-26T10:32:50.125Z,99671.72
2022-08-26T10:35:20.547Z,99664.66
2022-08-26T10:37:54.302Z,99661.50
2022-08-26T10:40:27.825Z,99660.81
2022-08-26T10:42:59.685Z,99653.88
2022-08-26T10:45:30.834Z,99664.06
2022-08-26T10:48:06.709Z,99657.91
2022-08-26T10:50:40.299Z,99659.25
2022-08-26T10:53:14.712Z,99652.53
2022-08-26T10:55:54.886Z,99650.00
2022-08-26T10:58:39.074Z,99636.94
2022-08-26T11:01:33.553Z,99641.00
2022-08-26T11:04:10.046Z,99649.34
2022-08-26T11:06:39.404Z,99643.44
2022-08-26T11:09:10.717Z,99635.84
2022-08-26T11:11:50.941Z,99639.63
2022-08-26T11:14:53.396Z,99633.84
2022-08-26T11:18:00.044Z,99621.22
2022-08-26T11:20:42.020Z,99615.38
2022-08-26T11:23:41.601Z,99622.34
2022-08-26T11:26:35.582Z,99614.50
2022-08-26T11:29:12.201Z,99597.91
2022-08-26T11:31:56.115Z,99606.66
2022-08-26T11:34:54.212Z,99610.63
2022-08-26T11:37:30.998Z,99607.81
2022-08-26T11:40:04.168Z,99596.09
2022-08-26T11:42:41.671Z,99601.09
2022-08-26T11:45:23.910Z,99610.53
2022-08-26T11:47:52.755Z,99604.47
2022-08-26T11:50:26.220Z,99594.00
2022-08-26T11:53:01.956Z,99584.38
2022-08-26T11:55:32.333Z,99578.88
2022-08-26T11:58:06.614Z,99586.56
2022-08-26T12:00:51.383Z,99583.06
2022-08-26T12:03:24.026Z,99562.81
2022-08-26T12:05:54.666Z,99562.31
2022-08-26T12:08:28.702Z,99568.03
2022-08-26T12:11:04.501Z,99558.31
2022-08-26T12:13:33.107Z,99548.50
2022-08-26T12:16:02.713Z,99547.13
2022-08-26T12:18:34.770Z,99543.84
2022-08-26T12:21:13.444Z,99538.84
2022-08-26T12:23:46.703Z,99538.31
2022-08-26T12:26:24.618Z,99526.78
2022-08-26T12:28:57.544Z,99537.19
2022-08-26T12:31:32.558Z,99524.50
2022-08-26T12:34:04.956Z,99519.03
2022-08-26T12:36:37.693Z,99510.03
2022-08-26T12:39:12.484Z,99507.13
2022-08-26T12:41:50.529Z,99506.28
2022-08-26T12:44:36.724Z,99496.84
2022-08-26T12:47:10.197Z,99490.28
2022-08-26T12:49:40.763Z,99495.56
2022-08-26T12:52:30.145Z,99494.06
2022-08-26T12:55:03.398Z,99469.34
2022-08-26T12:57:35.237Z,99486.19
2022-08-26T13:00:30.372Z,99478.59
2022-08-26T13:02:59.304Z,99467.75
2022-08-26T13:05:33.196Z,99467.34
2022-08-26T13:08:16.969Z,99466.78
2022-08-26T13:10:48.923Z,99466.25
2022-08-26T13:13:17.378Z,99462.28
2022-08-26T13:15:45.916Z,99444.47
2022-08-26T13:18:14.496Z,99452.94
2022-08-26T13:20:44.955Z,99446.63
2022-08-26T13:23:15.068Z,99443.84
2022-08-26T13:25:43.803Z,99435.41
2022-08-26T13:28:13.758Z,99442.47
2022-08-26T13:30:45.639Z,99430.75
2022-08-26T13:33:14.964Z,99423.03
2022-08-26T13:35:43.422Z,99420.19
2022-08-26T13:38:22.326Z,99426.25
2022-08-26T13:41:02.766Z,99418.56
2022-08-26T13:43:33.798Z,99420.22
2022-08-26T13:46:02.772Z,99420.03
2022-08-26T13:48:31.538Z,99391.78
2022-08-26T13:51:00.277Z,99387.25
2022-08-26T13:53:29.567Z,99405.28
2022-08-26T13:55:58.147Z,99401.13
2022-08-26T13:58:26.844Z,99403.47
2022-08-26T14:00:58.802Z,99389.97
2022-08-26T14:03:28.229Z,99394.97
2022-08-26T14:05:56.810Z,99382.28
2022-08-26T14:08:25.396Z,99385.06
2022-08-26T14:10:54.058Z,99363.25
2022-08-26T14:13:22.725Z,99373.50
2022-08-26T14:15:51.348Z,99372.75
2022-08-26T14:18:29.212Z,99371.13
2022-08-26T14:20:58.000Z,99359.25
2022-08-26T14:23:26.455Z,99375.88
2022-08-26T14:25:55.525Z,99359.03
2022-08-26T14:30:59.512Z,99360.03
2022-08-26T14:33:32.847Z,99354.13
2022-08-26T14:36:15.233Z,99354.31
2022-08-26T14:38:43.703Z,99338.91
2022-08-26T14:41:13.680Z,99353.09
2022-08-26T14:43:48.083Z,99344.78
2022-08-26T14:46:17.126Z,99348.66
2022-08-26T14:48:47.057Z,99339.75
2022-08-26T14:51:15.567Z,99342.84
2022-08-26T14:54:01.598Z,99350.38
2022-08-26T14:56:32.114Z,99344.06
2022-08-26T14:59:00.859Z,99347.56
2022-08-26T15:01:31.099Z,99347.94
2022-08-26T15:04:02.456Z,99318.03
2022-08-26T15:06:32.059Z,99339.50
2022-08-26T15:09:01.122Z,99320.31
2022-08-26T15:11:29.809Z,99323.34
2022-08-26T15:13:59.922Z,99327.16
2022-08-26T15:16:29.278Z,99314.94
2022-08-26T15:18:58.161Z,99335.09
2022-08-26T15:21:28.798Z,99333.41
2022-08-26T15:23:57.280Z,99326.13
2022-08-26T15:26:25.838Z,99324.31
2022-08-26T15:28:54.316Z,99311.84
2022-08-26T15:31:31.148Z,99314.03
2022-08-26T15:34:02.578Z,99318.84
2022-08-26T15:36:33.607Z,99316.81
2022-08-26T15:39:02.865Z,99317.75
2022-08-26T15:41:31.477Z,99317.69
2022-08-26T15:44:04.215Z,99318.16
2022-08-26T15:46:32.833Z,99312.53
2022-08-26T15:49:01.689Z,99298.63
2022-08-26T15:51:45.802Z,99315.63
2022-08-26T15:54:16.105Z,99308.72
2022-08-26T15:56:45.564Z,99315.72
2022-08-26T15:59:16.615Z,99300.34
2022-08-26T16:01:45.803Z,99307.41
2022-08-26T16:04:15.021Z,99313.13
2022-08-26T16:06:50.285Z,99307.19
2022-08-26T16:09:20.138Z,99306.94
2022-08-26T16:11:48.774Z,99301.25
2022-08-26T16:14:17.757Z,99298.63
2022-08-26T16:16:47.222Z,99291.56
2022-08-26T16:19:16.606Z,99290.50
2022-08-26T16:21:46.764Z,99292.06
2022-08-26T16:24:15.485Z,99288.03
2022-08-26T16:26:45.302Z,99290.50
2022-08-26T16:29:17.126Z,99278.81
2022-08-26T16:31:45.685Z,99279.88
2022-08-26T16:34:14.425Z,99276.88
2022-08-26T16:36:43.882Z,99278.97
2022-08-26T16:39:14.226Z,99286.38
2022-08-26T16:41:42.730Z,99264.44
2022-08-26T16:44:12.081Z,99272.03
2022-08-26T16:46:41.291Z,99281.25
2022-08-26T16:49:09.865Z,99281.25
2022-08-26T16:51:38.569Z,99278.59
2022-08-26T16:54:08.871Z,99280.19
2022-08-26T16:56:39.424Z,99275.28
2022-08-26T16:59:11.633Z,99286.13
2022-08-26T17:01:40.332Z,99282.09
2022-08-26T17:04:09.333Z,99280.19
2022-08-26T17:06:38.414Z,99291.63
2022-08-26T17:09:07.155Z,99284.91
2022-08-26T17:11:36.175Z,99297.09
2022-08-26T17:14:06.414Z,99285.19
2022-08-26T17:16:35.336Z,99287.91
2022-08-26T17:19:04.681Z,99280.31
2022-08-26T17:21:35.091Z,99258.06
2022-08-26T17:24:04.155Z,99284.63
2022-08-26T17:26:32.661Z,99273.25
2022-08-26T17:29:01.311Z,99290.03
2022-08-26T17:31:32.765Z,99281.88
2022-08-26T17:34:01.471Z,99288.91
2022-08-26T17:36:30.038Z,99272.06
2022-08-26T17:39:00.115Z,99279.09
2022-08-26T17:41:28.753Z,99283.22
2022-08-26T17:43:57.391Z,99285.06
2022-08-26T17:46:26.002Z,99299.13
2022-08-26T17:48:56.532Z,99293.78
2022-08-26T17:51:25.439Z,99303.00
2022-08-26T17:53:54.607Z,99302.38
2022-08-26T17:56:25.688Z,99299.91
2022-08-26T17:58:56.872Z,99286.63
2022-08-26T18:01:27.623Z,99297.75
2022-08-26T18:04:00.420Z,99277.31
2022-08-26T18:06:31.421Z,99287.63
2022-08-26T18:09:00.535Z,99300.66
2022-08-26T18:11:29.430Z,99302.28
2022-08-26T18:13:58.344Z,99302.56
2022-08-26T18:16:27.490Z,99296.88
2022-08-26T18:18:58.597Z,99287.22
2022-08-26T18:21:28.944Z,99303.53
2022-08-26T18:23:57.667Z,99276.34
2022-08-26T18:26:31.351Z,99298.97
2022-08-26T18:29:00.541Z,99295.06
2022-08-26T18:31:30.341Z,99288.78
2022-08-26T18:34:01.519Z,99294.41
2022-08-26T18:36:31.977Z,99295.41
2022-08-26T18:39:01.334Z,99284.28
2022-08-26T18:41:31.812Z,99293.38
2022-08-26T18:44:01.047Z,99298.69
2022-08-26T18:46:29.799Z,99304.84
2022-08-26T18:48:59.928Z,99299.88
2022-08-26T18:51:30.789Z,99302.59
2022-08-26T18:54:00.307Z,99311.63
2022-08-26T18:56:29.769Z,99312.44
2022-08-26T18:58:59.104Z,99315.94
2022-08-26T19:01:30.110Z,99321.56
2022-08-26T19:04:02.099Z,99306.66
2022-08-26T19:06:33.032Z,99313.59
2022-08-26T19:09:01.904Z,99317.59
2022-08-26T19:11:32.239Z,99316.53
2022-08-26T19:14:07.850Z,99319.06
2022-08-26T19:16:36.862Z,99319.06
2022-08-26T19:19:07.757Z,99315.72
2022-08-26T19:21:37.911Z,99324.91
2022-08-26T19:24:09.471Z,99321.28
2022-08-26T19:26:39.106Z,99312.28
2022-08-26T19:29:07.781Z,99299.13
2022-08-26T19:31:36.496Z,99313.78
2022-08-26T19:34:07.178Z,99312.19
2022-08-26T19:36:36.949Z,99325.41
2022-08-26T19:39:07.660Z,99272.22
2022-08-26T19:41:38.184Z,99325.47
2022-08-26T19:44:09.383Z,99322.47
2022-08-26T19:49:13.168Z,99329.66
2022-08-26T19:51:42.061Z,99332.94
2022-08-26T19:54:10.562Z,99340.06
2022-08-26T19:56:39.043Z,99345.06
2022-08-26T19:59:07.544Z,99341.09
2022-08-26T20:01:36.792Z,99351.50
2022-08-26T20:04:05.679Z,99350.56
2022-08-26T20:06:35.913Z,99347.75
2022-08-26T20:09:05.071Z,99358.13
2022-08-26T20:11:33.618Z,99352.16
2022-08-26T20:14:02.122Z,99342.38
2022-08-26T20:16:30.687Z,99354.28
2022-08-26T20:19:16.654Z,99353.91
2022-08-26T20:21:47.086Z,99348.63
2022-08-26T20:24:18.254Z,99356.53
2022-08-26T20:26:47.023Z,99354.19
2022-08-26T20:29:19.041Z,99355.69
2022-08-26T20:31:48.004Z,99365.69
2022-08-26T20:34:18.721Z,99359.38
2022-08-26T20:36:50.301Z,99361.44
2022-08-26T20:39:21.107Z,99357.22
2022-08-26T20:41:50.365Z,99380.19
2022-08-26T20:44:19.006Z,99382.88
2022-08-26T20:46:47.525Z,99387.28
2022-08-26T20:49:18.160Z,99384.44
2022-08-26T20:51:51.174Z,99416.09
2022-08-26T20:54:24.012Z,99414.84
2022-08-26T20:56:56.693Z,99422.44
2022-08-26T20:59:26.025Z,99432.03
2022-08-26T21:01:54.615Z,99416.41
2022-08-26T21:04:25.206Z,99441.13
2022-08-26T21:06:55.754Z,99439.19
2022-08-26T21:09:26.099Z,99437.56
2022-08-26T21:11:55.956Z,99427.47
2022-08-26T21:14:25.943Z,99438.91
2022-08-26T21:16:54.918Z,99444.19
2022-08-26T21:19:23.815Z,99425.66
2022-08-26T21:21:52.289Z,99423.09
2022-08-26T21:24:23.319Z,99421.50
2022-08-26T21:26:51.806Z,99417.53
2022-08-26T21:29:22.142Z,99404.50
2022-08-26T21:31:50.746Z,99396.38
2022-08-26T21:34:20.462Z,99386.91
2022-08-26T21:36:49.736Z,99374.03
2022-08-26T21:39:18.626Z,99381.56
2022-08-26T21:41:48.690Z,99372.03
2022-08-26T21:44:18.874Z,99372.94
2022-08-26T21:46:47.724Z,99378.72
2022-08-26T21:49:17.520Z,99370.50
2022-08-26T21:51:49.296Z,99392.81
2022-08-26T21:54:18.784Z,99396.06
2022-08-26T21:56:49.363Z,99376.13
2022-08-26T21:59:20.032Z,99392.28
2022-08-26T22:01:49.034Z,99379.50
2022-08-26T22:04:18.255Z,99384.81
2022-08-26T22:06:57.956Z,99378.06
2022-08-26T22:09:28.902Z,99362.81
2022-08-26T22:11:59.492Z,99369.59
2022-08-26T22:14:30.849Z,99354.25
2022-08-26T22:17:00.593Z,99373.44
2022-08-26T22:19:31.890Z,99375.31
2022-08-26T22:22:03.870Z,99364.22
2022-08-26T22:24:32.400Z,99368.88
2022-08-26T22:27:02.379Z,99371.19
2022-08-26T22:29:33.736Z,99372.06
2022-08-26T22:32:02.452Z,99383.34
2022-08-26T22:34:31.352Z,99379.66
2022-08-26T22:37:00.242Z,99386.50
2022-08-26T22:39:28.803Z,99356.78
2022-08-26T22:41:57.558Z,99386.63
2022-08-26T22:44:27.545Z,99387.00
2022-08-26T22:46:56.156Z,99387.00
2022-08-26T22:49:25.281Z,99389.66
2022-08-26T22:51:54.085Z,99380.00
2022-08-26T22:54:22.742Z,99376.34
2022-08-26T22:56:51.388Z,99367.22
2022-08-26T22:59:19.895Z,99362.53
2022-08-26T23:01:49.753Z,99371.38
2022-08-26T23:04:18.347Z,99368.38
2022-08-26T23:06:47.505Z,99373.31
2022-08-26T23:09:18.523Z,99364.66
2022-08-26T23:11:48.999Z,99360.13
2022-08-26T23:14:18.622Z,99366.72
2022-08-26T23:16:47.762Z,99370.66
2022-08-26T23:19:20.147Z,99364.06
2022-08-26T23:21:49.634Z,99361.19
2022-08-26T23:24:18.714Z,99365.06
2022-08-26T23:26:48.184Z,99343.00
2022-08-26T23:29:16.746Z,99366.16
2022-08-26T23:31:45.666Z,99373.75
2022-08-26T23:34:32.146Z,99357.00
2022-08-26T23:37:06.731Z,99360.28
2022-08-26T23:39:36.359Z,99374.00
2022-08-26T23:42:06.646Z,99382.44
2022-08-26T23:44:35.651Z,99359.72
2022-08-26T23:47:04.951Z,99372.22
2022-08-26T23:49:34.606Z,99358.91
2022-08-26T23:52:22.785Z,99377.59
2022-08-26T23:54:52.457Z,99382.97
2022-08-26T23:57:22.970Z,99371.88
2022-08-26T23:59:51.778Z,99368.44
